Provo, UT (84601)

7:44 PM MDT on August 23, 2016 (GMT -0600)
APRSWXNET | | Change Station
Active Advisory: Fire Weather Warning

Elev 4563 ft 40.24 °N, 111.69 °W | Updated 35 minutes ago

Scattered Clouds
Scattered Clouds
85 °F
Feels Like 82 °F
N
2
Wind Variable Wind from WNW
Gusts 8.0 mph

Today
High -- | Low -- °F
--% Chance of Precip.
Yesterday
High -- | Low -- °F
Precip. -- in
Pressure 30.03 in
Visibility 10.0 miles
Clouds Scattered Clouds 10000 ft
Scattered Clouds 18000 ft
Heat Index 82 °F
Dew Point 39 °F
Humidity 20%
Rainfall in
Snow Depth Not available.
6:46 AM 8:11 PM
Waning Gibbous, 62% visible
METAR KPVU 240048Z 28004KT 10SM SCT100 SCT180 28/06 A3003
Pressure 30.03 in
Visibility 10.0 miles
Clouds Scattered Clouds 10000 ft
Scattered Clouds 18000 ft
Heat Index 82 °F
Dew Point 39 °F
Humidity 20%
Rainfall in
Snow Depth Not available.
6:46 AM 8:11 PM
Waning Gibbous, 62% visible
METAR KPVU 240048Z 28004KT 10SM SCT100 SCT180 28/06 A3003

10-Day Weather Forecast

Almanac

Astronomy

Aug. 23, 2016 Rise Set
Actual Time
Civil Twilight
Nautical Twilight
Astronomical Twilight
Moon
Length of Visible Light
Length of Day
Tomorrow will be .
, % of the Moon is Illuminated

Today's Extremes

State Highs State Lows

Community

WunderPhotos

Upload Photos

1,934,520 photos uploaded!

WunderBlog® & News

Nearby

Air Quality

  Air Quality AQ Index Pollutant
Not available.

Snow Depth

Station Depth Elevation

Earthquake Activity

City Distance Mag. Time & Date
Minimum magnitude displayed is 2.5.

Coastal Water Temperatures

Place Temperature

Stations

Nearby Weather Stations

Station Location Temp. Windchill Dew Point Humidity Wind Precip. Elev Updated Type
                   

Watches & Warnings

Fire Weather Warning
Issued: 2:44 PM MDT Aug. 23, 2016 – National Weather Service

... Red flag warning remains in effect until 9 PM MDT this evening
for wind and low relative humidity for fire weather zone 479...

* affected area... fire weather zone 479 Wasatch mountains.

* Winds... 15 to 25 mph with gusts near 30 mph.

* Relative humidity... 12 to 15 percent.

* Impacts... a combination of gusty winds and low humidity will
create the potential for rapid fire growth.

Precautionary/preparedness actions...

A red flag warning means that critical fire weather conditions
are either occurring now... or will shortly. A combination of
strong winds... low relative humidity... and warm temperatures can
contribute to extreme fire behavior.



For more information from NOAA/National Weather Service visit...
http://weather.Gov/saltlakecity (all lower case)